createdAt,value
2022-08-10T00:01:51.085Z,99162.28
2022-08-10T00:04:21.433Z,99162.44
2022-08-10T00:06:51.902Z,99165.75
2022-08-10T00:09:19.929Z,99169.03
2022-08-10T00:11:50.320Z,99167.63
2022-08-10T00:14:18.414Z,99164.56
2022-08-10T00:16:46.484Z,99168.69
2022-08-10T00:19:16.766Z,99172.09
2022-08-10T00:21:45.597Z,99175.53
2022-08-10T00:24:15.386Z,99178.84
2022-08-10T00:27:52.376Z,99164.72
2022-08-10T00:29:31.965Z,99173.00
2022-08-10T00:32:00.044Z,99167.56
2022-08-10T00:34:28.255Z,99169.09
2022-08-10T00:36:56.574Z,99162.56
2022-08-10T00:39:26.140Z,99167.22
2022-08-10T00:42:06.449Z,99163.44
2022-08-10T00:44:35.596Z,99158.69
2022-08-10T00:47:03.669Z,99165.09
2022-08-10T00:49:33.852Z,99165.91
2022-08-10T00:52:02.561Z,99167.59
2022-08-10T00:54:31.990Z,99173.78
2022-08-10T00:57:18.122Z,99170.31
2022-08-10T00:59:58.127Z,99171.47
2022-08-10T01:02:29.444Z,99166.50
2022-08-10T01:05:01.243Z,99168.34
2022-08-10T01:07:35.438Z,99166.09
2022-08-10T01:10:09.763Z,99168.47
2022-08-10T01:12:42.565Z,99173.53
2022-08-10T01:15:17.067Z,99171.88
2022-08-10T01:17:51.612Z,99170.69
2022-08-10T01:20:30.262Z,99179.13
2022-08-10T01:23:17.148Z,99172.34
2022-08-10T01:26:12.212Z,99173.41
2022-08-10T01:29:04.507Z,99164.84
2022-08-10T01:31:41.334Z,99164.53
2022-08-10T01:34:13.000Z,99157.84
2022-08-10T01:36:45.804Z,99162.66
2022-08-10T01:39:17.479Z,99165.28
2022-08-10T01:41:50.180Z,99136.44
2022-08-10T01:44:20.606Z,99163.47
2022-08-10T01:46:57.011Z,99165.53
2022-08-10T01:49:25.804Z,99130.41
2022-08-10T01:51:55.844Z,99167.38
2022-08-10T01:54:29.661Z,99163.22
2022-08-10T01:56:59.053Z,99166.34
2022-08-10T01:59:31.068Z,99162.56
2022-08-10T02:02:02.748Z,99162.13
2022-08-10T02:04:32.250Z,99163.41
2022-08-10T02:07:01.677Z,99163.91
2022-08-10T02:09:31.397Z,99174.47
2022-08-10T02:12:07.166Z,99165.13
2022-08-10T02:14:38.155Z,99165.38
2022-08-10T02:18:00.213Z,99165.78
2022-08-10T02:20:03.118Z,99177.75
2022-08-10T02:22:38.097Z,99180.81
2022-08-10T02:25:07.895Z,99174.38
2022-08-10T02:27:36.783Z,99155.44
2022-08-10T02:30:05.259Z,99170.75
2022-08-10T02:32:37.989Z,99179.44
2022-08-10T02:35:22.692Z,99173.06
2022-08-10T02:37:52.505Z,99170.69
2022-08-10T02:45:02.253Z,99177.69
2022-08-10T02:45:23.255Z,99169.69
2022-08-10T02:46:06.227Z,99170.44
2022-08-10T02:48:42.026Z,99179.75
2022-08-10T02:51:15.786Z,99177.69
2022-08-10T02:53:54.700Z,99185.09
2022-08-10T02:56:27.248Z,99182.66
2022-08-10T02:58:57.813Z,99188.25
2022-08-10T03:01:31.619Z,99194.94
2022-08-10T03:04:03.066Z,99176.69
2022-08-10T03:06:35.034Z,99196.00
2022-08-10T03:09:07.400Z,99183.91
2022-08-10T03:12:35.879Z,99188.13
2022-08-10T03:14:25.379Z,99183.13
2022-08-10T03:16:55.415Z,99187.41
2022-08-10T03:20:34.537Z,99183.06
2022-08-10T03:22:13.633Z,99186.22
2022-08-10T03:24:42.831Z,99184.66
2022-08-10T03:27:11.670Z,99194.06
2022-08-10T03:30:29.972Z,99188.75
2022-08-10T03:32:28.659Z,99193.47
2022-08-10T03:34:58.813Z,99192.41
2022-08-10T03:37:27.485Z,99187.94
2022-08-10T03:39:56.149Z,99189.34
2022-08-10T03:42:24.819Z,99187.91
2022-08-10T03:44:53.607Z,99189.09
2022-08-10T03:47:22.500Z,99188.75
2022-08-10T03:49:52.060Z,99183.19
2022-08-10T03:52:21.921Z,99188.16
2022-08-10T03:54:51.561Z,99194.88
2022-08-10T03:57:22.409Z,99191.56
2022-08-10T03:59:51.481Z,99193.81
2022-08-10T04:02:45.313Z,99202.00
2022-08-10T04:05:09.139Z,99206.25
2022-08-10T04:07:38.625Z,99203.31
2022-08-10T04:10:07.142Z,99205.44
2022-08-10T04:12:44.231Z,99204.13
2022-08-10T04:15:12.809Z,99203.78
2022-08-10T04:18:04.480Z,99207.44
2022-08-10T04:20:34.439Z,99206.38
2022-08-10T04:23:07.500Z,99202.84
2022-08-10T04:25:36.290Z,99204.03
2022-08-10T04:28:04.582Z,99214.88
2022-08-10T04:30:33.418Z,99219.38
2022-08-10T04:33:03.207Z,99219.38
2022-08-10T04:35:33.014Z,99218.56
2022-08-10T04:38:01.998Z,99218.56
2022-08-10T04:40:31.839Z,99219.59
2022-08-10T04:43:04.465Z,99220.69
2022-08-10T04:45:49.716Z,99216.44
2022-08-10T04:48:40.444Z,99213.47
2022-08-10T04:51:11.086Z,99214.41
2022-08-10T04:54:04.309Z,99214.75
2022-08-10T04:56:34.568Z,99217.94
2022-08-10T04:59:02.664Z,99215.56
2022-08-10T05:02:30.712Z,99223.72
2022-08-10T05:04:37.079Z,99208.94
2022-08-10T05:07:10.495Z,99220.53
2022-08-10T05:10:00.491Z,99218.53
2022-08-10T05:12:29.310Z,99217.03
2022-08-10T05:14:57.428Z,99218.00
2022-08-10T05:17:25.624Z,99214.81
2022-08-10T05:20:01.919Z,99217.56
2022-08-10T05:22:33.468Z,99223.81
2022-08-10T05:25:01.694Z,99218.06
2022-08-10T05:27:31.327Z,99222.63
2022-08-10T05:30:02.206Z,99217.84
2022-08-10T05:32:31.608Z,99229.97
2022-08-10T05:34:59.637Z,99224.41
2022-08-10T05:38:09.995Z,99225.38
2022-08-10T05:40:18.144Z,99228.91
2022-08-10T05:42:50.411Z,99224.81
2022-08-10T05:45:22.184Z,99236.66
2022-08-10T05:48:54.507Z,99229.81
2022-08-10T05:50:39.620Z,99225.38
2022-08-10T05:54:01.309Z,99229.66
2022-08-10T05:55:56.281Z,99235.06
2022-08-10T05:58:25.926Z,99233.28
2022-08-10T06:00:58.427Z,99236.94
2022-08-10T06:03:27.836Z,99239.00
2022-08-10T06:05:56.243Z,99230.00
2022-08-10T06:08:26.975Z,99230.00
2022-08-10T06:12:23.446Z,99234.03
2022-08-10T06:14:13.370Z,99232.94
2022-08-10T06:16:44.544Z,99243.34
2022-08-10T06:19:15.601Z,99242.09
2022-08-10T06:22:00.317Z,99244.25
2022-08-10T06:24:31.088Z,99250.47
2022-08-10T06:26:59.521Z,99237.81
2022-08-10T06:29:30.644Z,99238.53
2022-08-10T06:32:00.551Z,99244.16
2022-08-10T06:34:32.912Z,99238.81
2022-08-10T06:37:02.563Z,99238.09
2022-08-10T06:39:35.510Z,99231.00
2022-08-10T06:42:15.817Z,99227.78
2022-08-10T06:44:52.621Z,99233.81
2022-08-10T06:47:25.153Z,99240.31
2022-08-10T06:49:59.765Z,99229.34
2022-08-10T06:52:29.587Z,99229.84
2022-08-10T06:54:58.463Z,99230.41
2022-08-10T06:57:29.035Z,99211.34
2022-08-10T07:00:00.158Z,99219.91
2022-08-10T07:02:31.202Z,99222.38
2022-08-10T07:05:03.260Z,99225.19
2022-08-10T07:07:33.529Z,99228.03
2022-08-10T07:10:02.318Z,99219.81
2022-08-10T07:12:32.272Z,99220.34
2022-08-10T07:15:03.382Z,99231.25
2022-08-10T07:17:35.888Z,99226.41
2022-08-10T07:20:09.300Z,99236.69
2022-08-10T07:23:26.960Z,99231.28
2022-08-10T07:25:27.256Z,99224.25
2022-08-10T07:27:59.636Z,99233.09
2022-08-10T07:30:31.429Z,99230.13
2022-08-10T07:33:00.138Z,99234.16
2022-08-10T07:35:33.168Z,99220.41
2022-08-10T07:38:06.421Z,99220.53
2022-08-10T07:40:35.574Z,99220.69
2022-08-10T07:43:04.675Z,99216.19
2022-08-10T07:45:36.393Z,99216.00
2022-08-10T07:48:07.921Z,99219.66
2022-08-10T07:50:38.699Z,99219.22
2022-08-10T07:53:09.554Z,99222.06
2022-08-10T07:56:04.417Z,99217.91
2022-08-10T07:58:29.654Z,99209.28
2022-08-10T08:01:01.234Z,99208.88
2022-08-10T08:03:30.410Z,99217.47
2022-08-10T08:06:05.308Z,99212.81
2022-08-10T08:08:39.099Z,99211.97
2022-08-10T08:11:10.139Z,99217.06
2022-08-10T08:13:57.383Z,99215.47
2022-08-10T08:16:27.305Z,99218.94
2022-08-10T08:24:04.647Z,99207.25
2022-08-10T08:24:37.395Z,99216.09
2022-08-10T08:27:07.621Z,99215.25
2022-08-10T08:29:37.121Z,99210.69
2022-08-10T08:32:07.275Z,99216.16
2022-08-10T08:34:37.432Z,99212.16
2022-08-10T08:37:06.588Z,99223.94
2022-08-10T08:39:36.838Z,99209.72
2022-08-10T08:42:14.354Z,99214.06
2022-08-10T08:44:51.472Z,99211.25
2022-08-10T08:48:02.935Z,99205.94
2022-08-10T08:50:29.626Z,99205.72
2022-08-10T08:53:12.880Z,99203.91
2022-08-10T08:56:05.869Z,99193.16
2022-08-10T08:58:39.853Z,99197.25
2022-08-10T09:01:20.023Z,99205.44
2022-08-10T09:04:20.121Z,99199.63
2022-08-10T09:06:56.208Z,99199.22
2022-08-10T09:09:33.443Z,99188.44
2022-08-10T09:12:08.439Z,99200.56
2022-08-10T09:14:41.958Z,99193.06
2022-08-10T09:17:14.757Z,99198.91
2022-08-10T09:19:49.623Z,99200.31
2022-08-10T09:22:22.801Z,99200.16
2022-08-10T09:24:53.118Z,99183.22
2022-08-10T09:27:23.841Z,99182.97
2022-08-10T09:29:55.176Z,99192.69
2022-08-10T09:36:15.818Z,99183.22
2022-08-10T09:36:23.866Z,99185.09
2022-08-10T09:38:19.400Z,99190.91
2022-08-10T09:40:59.304Z,99178.91
2022-08-10T09:43:35.889Z,99197.50
2022-08-10T09:46:11.076Z,99175.34
2022-08-10T09:48:46.559Z,99183.41
2022-08-10T09:51:44.839Z,99174.44
2022-08-10T09:54:21.868Z,99177.06
2022-08-10T09:57:06.969Z,99171.09
2022-08-10T10:00:00.666Z,99179.13
2022-08-10T10:02:37.621Z,99170.38
2022-08-10T10:05:11.768Z,99181.03
2022-08-10T10:07:48.956Z,99173.19
2022-08-10T10:10:23.632Z,99162.47
2022-08-10T10:12:54.482Z,99160.91
2022-08-10T10:15:27.856Z,99186.31
2022-08-10T10:18:09.546Z,99169.22
2022-08-10T10:20:40.545Z,99159.97
2022-08-10T10:23:15.027Z,99168.94
2022-08-10T10:25:51.396Z,99147.28
2022-08-10T10:28:44.408Z,99158.66
2022-08-10T10:31:19.922Z,99157.69
2022-08-10T10:33:53.729Z,99152.53
2022-08-10T10:36:23.478Z,99149.00
2022-08-10T10:38:54.458Z,99151.09
2022-08-10T10:42:03.886Z,99136.84
2022-08-10T10:44:27.987Z,99147.88
2022-08-10T10:47:04.395Z,99140.78
2022-08-10T10:49:39.867Z,99147.00
2022-08-10T10:52:15.647Z,99141.88
2022-08-10T10:54:51.561Z,99136.19
2022-08-10T10:57:24.208Z,99131.81
2022-08-10T11:00:12.701Z,99125.59
2022-08-10T11:02:54.926Z,99121.50
2022-08-10T11:05:28.004Z,99121.66
2022-08-10T11:08:00.945Z,99129.22
2022-08-10T11:10:43.236Z,99133.91
2022-08-10T11:14:24.501Z,99119.38
2022-08-10T11:16:14.329Z,99112.84
2022-08-10T11:19:00.032Z,99123.63
2022-08-10T11:21:32.852Z,99124.63
2022-08-10T11:24:48.789Z,99112.72
2022-08-10T11:26:56.438Z,99130.84
2022-08-10T11:29:30.543Z,99107.13
2022-08-10T11:32:00.968Z,99115.91
2022-08-10T11:34:46.794Z,99110.06
2022-08-10T11:37:20.523Z,99109.59
2022-08-10T11:39:52.295Z,99116.41
2022-08-10T11:42:35.705Z,99105.50
2022-08-10T11:45:06.790Z,99108.13
2022-08-10T11:47:40.226Z,99093.97
2022-08-10T11:50:14.736Z,99098.31
2022-08-10T11:52:47.174Z,99102.09
2022-08-10T11:55:19.896Z,99080.50
2022-08-10T11:57:54.814Z,99095.84
2022-08-10T12:00:24.102Z,99083.25
2022-08-10T12:02:55.142Z,99094.19
2022-08-10T12:05:52.514Z,99101.09
2022-08-10T12:10:02.263Z,99088.94
2022-08-10T12:11:02.074Z,99092.56
2022-08-10T12:13:37.215Z,99078.78
2022-08-10T12:16:07.805Z,99090.03
2022-08-10T12:18:45.873Z,99088.38
2022-08-10T12:21:21.703Z,99091.28
2022-08-10T12:24:03.049Z,99082.13
2022-08-10T12:26:37.139Z,99076.97
2022-08-10T12:29:10.020Z,99068.50
2022-08-10T12:31:41.076Z,99074.22
2022-08-10T12:34:19.882Z,99072.09
2022-08-10T12:36:54.645Z,99074.88
2022-08-10T12:39:26.105Z,99041.50
2022-08-10T12:41:57.321Z,99065.88
2022-08-10T12:44:41.223Z,99059.81
2022-08-10T12:47:15.665Z,99054.38
2022-08-10T12:50:29.279Z,99053.97
2022-08-10T12:52:41.496Z,99063.47
2022-08-10T12:55:11.165Z,99056.47
2022-08-10T12:57:39.866Z,99051.44
2022-08-10T13:00:17.211Z,99046.09
2022-08-10T13:02:48.895Z,99046.78
2022-08-10T13:05:17.787Z,99033.06
2022-08-10T13:08:25.730Z,99038.38
2022-08-10T13:10:43.240Z,99042.81
2022-08-10T13:13:15.518Z,99031.63
2022-08-10T13:15:50.491Z,99039.41
2022-08-10T13:18:23.959Z,99037.97
2022-08-10T13:20:53.224Z,99032.91
2022-08-10T13:23:23.098Z,99019.66
2022-08-10T13:25:52.844Z,99011.34
2022-08-10T13:28:37.821Z,99021.16
2022-08-10T13:31:16.627Z,99016.25
2022-08-10T13:34:41.045Z,99015.09
2022-08-10T13:36:38.865Z,99010.53
2022-08-10T13:39:08.086Z,99008.28
2022-08-10T13:41:39.211Z,99015.25
2022-08-10T13:44:08.853Z,99008.38
2022-08-10T13:46:40.495Z,98989.59
2022-08-10T13:49:12.064Z,98999.06
2022-08-10T13:51:54.400Z,99002.00
2022-08-10T13:54:27.321Z,98987.44
2022-08-10T13:56:56.711Z,98981.44
2022-08-10T14:00:33.692Z,98985.63
2022-08-10T14:02:18.093Z,98992.69
2022-08-10T14:04:46.660Z,98991.03
2022-08-10T14:07:16.831Z,98989.59
2022-08-10T14:09:47.547Z,98983.34
2022-08-10T14:12:16.201Z,98986.91
2022-08-10T14:14:46.008Z,98982.66
2022-08-10T14:17:22.935Z,98985.50
2022-08-10T14:19:52.933Z,98979.72
2022-08-10T14:22:33.676Z,98976.47
2022-08-10T14:25:09.681Z,98969.06
2022-08-10T14:27:40.343Z,98974.66
2022-08-10T14:30:30.793Z,98967.03
2022-08-10T14:33:04.226Z,98965.06
2022-08-10T14:36:18.895Z,98954.75
2022-08-10T14:38:24.367Z,98952.69
2022-08-10T14:40:53.329Z,98949.44
2022-08-10T14:43:28.613Z,98955.84
2022-08-10T14:46:01.336Z,98938.97
2022-08-10T14:48:34.711Z,98939.06
2022-08-10T14:51:07.642Z,98953.31
2022-08-10T14:53:37.058Z,98940.63
2022-08-10T14:56:09.602Z,98942.34
2022-08-10T14:58:39.539Z,98941.03
2022-08-10T15:02:38.984Z,98942.84
2022-08-10T15:04:19.288Z,98937.44
2022-08-10T15:06:54.128Z,98929.81
2022-08-10T15:09:25.008Z,98938.91
2022-08-10T15:12:13.941Z,98932.75
2022-08-10T15:14:46.016Z,98934.44
2022-08-10T15:17:16.589Z,98929.97
2022-08-10T15:20:02.600Z,98928.41
2022-08-10T15:22:38.456Z,98923.31
2022-08-10T15:25:17.990Z,98927.78
2022-08-10T15:27:54.936Z,98926.31
2022-08-10T15:30:32.005Z,98929.72
2022-08-10T15:33:21.510Z,98923.19
2022-08-10T15:36:27.553Z,98929.25
2022-08-10T15:38:59.048Z,98927.97
2022-08-10T15:41:58.955Z,98916.91
2022-08-10T15:44:25.177Z,98909.44
2022-08-10T15:46:57.592Z,98914.19
2022-08-10T15:49:29.412Z,98910.22
2022-08-10T15:52:01.717Z,98911.31
2022-08-10T15:54:33.276Z,98908.97
2022-08-10T15:57:03.840Z,98908.56
2022-08-10T15:59:33.233Z,98908.69
2022-08-10T16:02:16.695Z,98904.91
2022-08-10T16:04:50.429Z,98902.25
2022-08-10T16:07:22.833Z,98905.84
2022-08-10T16:10:25.219Z,98897.44
2022-08-10T16:12:59.490Z,98892.84
2022-08-10T16:15:29.992Z,98893.03
2022-08-10T16:18:01.396Z,98898.59
2022-08-10T16:20:31.373Z,98893.38
2022-08-10T16:23:03.182Z,98886.78
2022-08-10T16:25:48.427Z,98885.91
2022-08-10T16:28:24.208Z,98881.91
2022-08-10T16:30:53.779Z,98884.38
2022-08-10T16:33:52.894Z,98890.75
2022-08-10T16:36:16.757Z,98889.91
2022-08-10T16:38:47.919Z,98884.22
2022-08-10T16:42:02.088Z,98886.31
2022-08-10T16:44:05.361Z,98889.28
2022-08-10T16:46:34.107Z,98884.81
2022-08-10T16:49:05.093Z,98880.66
2022-08-10T16:51:35.820Z,98878.31
2022-08-10T16:54:07.278Z,98890.41
2022-08-10T16:56:48.994Z,98877.50
2022-08-10T16:59:20.828Z,98876.41
2022-08-10T17:01:54.687Z,98874.22
2022-08-10T17:04:23.730Z,98873.53
2022-08-10T17:06:56.150Z,98873.88
2022-08-10T17:09:27.658Z,98878.78
2022-08-10T17:11:56.471Z,98874.44
2022-08-10T17:14:25.282Z,98876.94
2022-08-10T17:16:57.047Z,98877.31
2022-08-10T17:19:29.094Z,98875.88
2022-08-10T17:21:57.822Z,98876.38
2022-08-10T17:24:30.097Z,98873.19
2022-08-10T17:28:03.123Z,98867.75
2022-08-10T17:29:57.755Z,98847.13
2022-08-10T17:32:44.750Z,98871.91
2022-08-10T17:35:14.533Z,98868.88
2022-08-10T17:37:45.734Z,98871.47
2022-08-10T17:40:17.041Z,98866.47
2022-08-10T17:42:46.643Z,98866.97
2022-08-10T17:45:20.717Z,98866.53
2022-08-10T17:48:05.714Z,98868.31
2022-08-10T17:50:35.656Z,98869.97
2022-08-10T17:53:06.807Z,98872.53
2022-08-10T17:55:37.310Z,98876.66
2022-08-10T17:58:11.318Z,98872.06
2022-08-10T18:00:41.691Z,98864.72
2022-08-10T18:03:15.759Z,98874.03
2022-08-10T18:05:56.268Z,98871.91
2022-08-10T18:08:26.216Z,98874.53
2022-08-10T18:10:59.234Z,98884.75
2022-08-10T18:13:28.803Z,98886.53
2022-08-10T18:16:23.935Z,98879.19
2022-08-10T18:18:59.216Z,98886.34
2022-08-10T18:21:32.163Z,98889.38
2022-08-10T18:24:01.747Z,98889.88
2022-08-10T18:26:34.927Z,98890.47
2022-08-10T18:29:07.432Z,98887.72
2022-08-10T18:31:35.639Z,98891.25
2022-08-10T18:34:04.606Z,98887.72
2022-08-10T18:36:34.465Z,98882.94
2022-08-10T18:39:03.829Z,98887.31
2022-08-10T18:41:36.245Z,98891.38
2022-08-10T18:44:12.205Z,98893.75
2022-08-10T18:46:45.928Z,98894.38
2022-08-10T18:49:17.492Z,98897.47
2022-08-10T18:51:47.414Z,98899.03
2022-08-10T18:54:39.489Z,98898.72
2022-08-10T18:57:11.178Z,98898.81
2022-08-10T19:00:08.358Z,98898.16
2022-08-10T19:02:42.431Z,98901.56
2022-08-10T19:05:31.337Z,98902.88
2022-08-10T19:08:10.056Z,98907.78
2022-08-10T19:10:43.804Z,98904.72
2022-08-10T19:13:18.901Z,98910.22
2022-08-10T19:15:52.891Z,98908.78
2022-08-10T19:18:32.508Z,98914.84
2022-08-10T19:21:05.829Z,98917.53
2022-08-10T19:23:43.169Z,98918.28
2022-08-10T19:26:41.713Z,98924.16
2022-08-10T19:30:08.502Z,98921.56
2022-08-10T19:32:21.500Z,98924.16
2022-08-10T19:34:56.520Z,98929.97
2022-08-10T19:37:32.569Z,98927.22
2022-08-10T19:40:11.898Z,98919.91
2022-08-10T19:42:42.321Z,98922.06
2022-08-10T19:45:56.026Z,98923.84
2022-08-10T19:48:11.722Z,98925.69
2022-08-10T19:50:42.740Z,98932.84
2022-08-10T19:53:15.145Z,98936.63
2022-08-10T19:55:49.063Z,98938.78
2022-08-10T19:58:19.790Z,98939.75
2022-08-10T20:00:55.515Z,98944.59
2022-08-10T20:03:27.568Z,98951.81
2022-08-10T20:06:13.131Z,98953.66
2022-08-10T20:08:51.854Z,98951.34
2022-08-10T20:11:45.805Z,98950.75
2022-08-10T20:14:22.073Z,98952.97
2022-08-10T20:16:52.285Z,98958.31
2022-08-10T20:19:52.459Z,98947.16
2022-08-10T20:22:28.643Z,98947.50
2022-08-10T20:25:04.275Z,98957.16
2022-08-10T20:27:56.818Z,98953.22
2022-08-10T20:30:28.119Z,98950.19
2022-08-10T20:33:01.634Z,98954.41
2022-08-10T20:35:33.792Z,98948.47
2022-08-10T20:38:08.039Z,98955.50
2022-08-10T20:40:43.634Z,98948.53
2022-08-10T20:43:18.765Z,98949.16
2022-08-10T20:46:07.995Z,98946.88
2022-08-10T20:48:39.034Z,98952.69
2022-08-10T20:51:12.568Z,98946.44
2022-08-10T20:53:45.523Z,98946.41
2022-08-10T20:56:18.250Z,98951.59
2022-08-10T20:59:08.974Z,98946.00
2022-08-10T21:02:07.309Z,98945.16
2022-08-10T21:04:44.456Z,98933.75
2022-08-10T21:07:57.730Z,98938.94
2022-08-10T21:10:19.511Z,98941.84
2022-08-10T21:12:51.468Z,98941.53
2022-08-10T21:15:27.199Z,98941.50
2022-08-10T21:18:09.204Z,98939.31
2022-08-10T21:20:47.541Z,98938.59
2022-08-10T21:23:30.690Z,98941.81
2022-08-10T21:26:07.420Z,98947.50
2022-08-10T21:31:41.528Z,98950.44
2022-08-10T21:34:12.353Z,98942.13
2022-08-10T21:36:43.094Z,98942.09
2022-08-10T21:39:15.897Z,98944.16
2022-08-10T21:42:14.794Z,98940.50
2022-08-10T21:45:10.003Z,98942.00
2022-08-10T21:48:07.261Z,98948.41
2022-08-10T21:51:06.293Z,98944.53
2022-08-10T21:53:56.960Z,98945.59
2022-08-10T21:56:48.169Z,98943.59
2022-08-10T22:02:56.380Z,98948.16
2022-08-10T22:05:45.503Z,98948.88
2022-08-10T22:08:33.655Z,98944.13
2022-08-10T22:11:21.916Z,98948.59
2022-08-10T22:14:09.607Z,98950.53
2022-08-10T22:17:59.586Z,98956.53
2022-08-10T22:20:18.914Z,98956.22
2022-08-10T22:23:27.359Z,98953.22
2022-08-10T22:26:19.820Z,98953.75
2022-08-10T22:29:09.922Z,98954.84
2022-08-10T22:31:24.738Z,98945.13
2022-08-10T22:32:07.544Z,98947.72
2022-08-10T22:35:04.086Z,98947.16
2022-08-10T22:37:58.068Z,98941.16
2022-08-10T22:40:54.101Z,98944.47
2022-08-10T22:43:42.116Z,98944.19
2022-08-10T22:46:32.343Z,98944.50
2022-08-10T22:48:59.465Z,98941.72
2022-08-10T22:51:35.571Z,98946.06
2022-08-10T22:54:30.413Z,98961.84
2022-08-10T22:57:17.337Z,98961.34
2022-08-10T22:59:45.749Z,98949.66
2022-08-10T23:02:18.105Z,98950.72
2022-08-10T23:04:49.500Z,98962.19
2022-08-10T23:07:21.134Z,98953.13
2022-08-10T23:09:52.847Z,98944.91
2022-08-10T23:12:26.536Z,98945.50
2022-08-10T23:15:16.138Z,98955.84
2022-08-10T23:18:07.512Z,98960.47
2022-08-10T23:20:37.619Z,98957.38
2022-08-10T23:23:10.120Z,98953.19
2022-08-10T23:25:56.794Z,98958.78
2022-08-10T23:28:39.169Z,98958.28
2022-08-10T23:31:16.924Z,98953.41
2022-08-10T23:34:05.975Z,98953.50
2022-08-10T23:36:35.858Z,98945.25
2022-08-10T23:39:25.422Z,98950.63
2022-08-10T23:42:00.755Z,98950.22
2022-08-10T23:44:38.184Z,98948.25
2022-08-10T23:47:06.917Z,98942.88
2022-08-10T23:49:35.869Z,98938.88
2022-08-10T23:52:10.173Z,98949.19
2022-08-10T23:54:44.073Z,98950.69
2022-08-10T23:57:16.222Z,98946.25
2022-08-10T23:59:49.801Z,98941.03
